Time;durP1;ratioP1;P1;durP2;ratioP2;P2;SDS_P1;SDS_P2;PMS_P1;PMS_P2;Temp;Humidity;BMP_temperature;BMP_pressure;BME280_temperature;BME280_humidity;BME280_pressure;Samples;Min_cycle;Max_cycle;Signal;HPM_P1;HPM_P2
2022/03/28 00:02:01;;;;;;;;;19.75;14.00;;;;;;;;5085342;27;51158;-56
2022/03/28 00:05:08;;;;;;;;;22.25;13.25;;;;;;;;5096307;27;51263;-57
2022/03/28 00:07:53;;;;;;;;;18.75;13.75;;;;;;;;5081047;27;51338;-57
2022/03/28 00:10:50;;;;;;;;;20.00;13.75;;;;;;;;5089152;27;51580;-58
2022/03/28 00:13:38;;;;;;;;;23.00;13.00;;;;;;;;5097364;27;51436;-58
2022/03/28 00:16:22;;;;;;;;;23.00;16.75;;;;;;;;5066911;27;51122;-58
2022/03/28 00:19:07;;;;;;;;;12.00;12.00;;;;;;;;5095977;27;51145;-57
2022/03/28 00:22:13;;;;;;;;;16.50;13.75;;;;;;;;5099442;27;51118;-57
2022/03/28 00:25:22;;;;;;;;;20.25;12.25;;;;;;;;5096268;27;51684;-59
2022/03/28 00:28:08;;;;;;;;;19.25;14.00;;;;;;;;5092627;27;51089;-57
2022/03/28 00:30:56;;;;;;;;;26.25;13.75;;;;;;;;5089943;27;50989;-58
2022/03/28 00:33:51;;;;;;;;;21.50;14.50;;;;;;;;5079553;27;51273;-58
2022/03/28 00:36:49;;;;;;;;;19.25;13.50;;;;;;;;5078970;27;51201;-57
2022/03/28 00:39:35;;;;;;;;;24.50;13.25;;;;;;;;5095073;27;51214;-58
2022/03/28 00:42:48;;;;;;;;;21.00;16.25;;;;;;;;5083419;27;51258;-57
2022/03/28 00:45:33;;;;;;;;;17.75;11.75;;;;;;;;5088437;27;51158;-58
2022/03/28 00:48:18;;;;;;;;;22.25;14.50;;;;;;;;5086710;27;51074;-57
2022/03/28 00:51:03;;;;;;;;;21.75;14.75;;;;;;;;5084189;27;51222;-57
2022/03/28 00:53:50;;;;;;;;;20.50;13.75;;;;;;;;5088995;27;51212;-56
2022/03/28 00:56:37;;;;;;;;;20.00;14.50;;;;;;;;5086873;27;51424;-59
2022/03/28 00:59:22;;;;;;;;;18.75;12.75;;;;;;;;5099742;27;51444;-58
2022/03/28 01:02:08;;;;;;;;;21.75;11.75;;;;;;;;5098554;27;51278;-59
2022/03/28 01:04:53;;;;;;;;;20.00;14.00;;;;;;;;5079901;27;51378;-57
2022/03/28 01:07:43;;;;;;;;;20.75;12.25;;;;;;;;5082717;27;51113;-57
2022/03/28 01:10:30;;;;;;;;;13.75;11.50;;;;;;;;5079105;27;51095;-58
2022/03/28 01:13:27;;;;;;;;;11.75;9.00;;;;;;;;5076450;27;51154;-57
2022/03/28 01:16:25;;;;;;;;;15.25;11.25;;;;;;;;5084748;27;51154;-57
2022/03/28 01:19:19;;;;;;;;;17.25;13.50;;;;;;;;5079032;27;51275;-59
2022/03/28 01:22:06;;;;;;;;;18.00;11.75;;;;;;;;5080364;27;51165;-55
2022/03/28 01:24:51;;;;;;;;;16.50;11.75;;;;;;;;5090039;27;51605;-57
2022/03/28 01:27:41;;;;;;;;;18.25;10.25;;;;;;;;5085906;27;51090;-57
2022/03/28 01:30:32;;;;;;;;;13.50;12.25;;;;;;;;5094869;27;51494;-58
2022/03/28 01:33:17;;;;;;;;;14.50;11.50;;;;;;;;5088750;27;51168;-57
2022/03/28 01:36:04;;;;;;;;;14.25;13.00;;;;;;;;5095033;27;51062;-57
2022/03/28 01:38:50;;;;;;;;;16.00;11.75;;;;;;;;5079902;27;51315;-58
2022/03/28 01:41:39;;;;;;;;;18.50;13.50;;;;;;;;5087145;27;51513;-57
2022/03/28 01:44:44;;;;;;;;;21.00;13.25;;;;;;;;5099000;27;51177;-58
2022/03/28 01:47:50;;;;;;;;;17.25;12.25;;;;;;;;5081448;27;51101;-58
2022/03/28 01:50:37;;;;;;;;;17.75;14.75;;;;;;;;5094286;27;51079;-58
2022/03/28 01:53:22;;;;;;;;;18.75;12.75;;;;;;;;5078814;27;51054;-58
2022/03/28 01:56:07;;;;;;;;;18.00;15.00;;;;;;;;5097608;27;51493;-57
2022/03/28 01:58:56;;;;;;;;;16.50;13.25;;;;;;;;5081764;27;51270;-57
2022/03/28 02:01:42;;;;;;;;;14.50;11.50;;;;;;;;5071182;27;51183;-58
2022/03/28 02:04:28;;;;;;;;;23.00;14.25;;;;;;;;5085150;27;51190;-56
2022/03/28 02:07:13;;;;;;;;;19.25;12.75;;;;;;;;5084997;27;51543;-56
2022/03/28 02:09:57;;;;;;;;;14.00;11.50;;;;;;;;5079239;27;51183;-58
2022/03/28 02:12:42;;;;;;;;;17.00;12.50;;;;;;;;5087589;27;51106;-57
2022/03/28 02:15:28;;;;;;;;;20.75;17.00;;;;;;;;5083383;27;51452;-58
2022/03/28 02:18:14;;;;;;;;;12.75;11.25;;;;;;;;5086055;27;51147;-57
2022/03/28 02:21:18;;;;;;;;;16.25;13.00;;;;;;;;5095085;27;51583;-56
2022/03/28 02:24:08;;;;;;;;;21.00;13.75;;;;;;;;5090860;27;51050;-57
2022/03/28 02:26:54;;;;;;;;;20.25;14.50;;;;;;;;5098161;27;51100;-57
2022/03/28 02:29:45;;;;;;;;;13.00;11.00;;;;;;;;5080966;27;51194;-58
2022/03/28 02:32:39;;;;;;;;;14.25;13.50;;;;;;;;5082194;27;51406;-57
2022/03/28 02:35:24;;;;;;;;;21.00;14.75;;;;;;;;5097819;27;51520;-57
2022/03/28 02:38:09;;;;;;;;;18.50;12.75;;;;;;;;5096301;27;51161;-56
2022/03/28 02:41:00;;;;;;;;;19.50;14.00;;;;;;;;5084478;27;51319;-57
2022/03/28 02:44:12;;;;;;;;;16.25;10.75;;;;;;;;5099165;27;51172;-57
2022/03/28 02:46:58;;;;;;;;;22.25;13.75;;;;;;;;5100786;27;51046;-57
2022/03/28 02:49:44;;;;;;;;;21.50;14.50;;;;;;;;5081427;27;51056;-57
2022/03/28 02:52:29;;;;;;;;;19.50;14.00;;;;;;;;5098088;27;51188;-57
2022/03/28 02:55:22;;;;;;;;;16.00;12.50;;;;;;;;5080737;27;51182;-57
2022/03/28 02:58:08;;;;;;;;;22.00;15.75;;;;;;;;5080584;27;51129;-58
2022/03/28 03:01:04;;;;;;;;;19.00;12.75;;;;;;;;5092558;27;51910;-55
2022/03/28 03:03:49;;;;;;;;;26.50;13.50;;;;;;;;5100870;27;51141;-57
2022/03/28 03:06:37;;;;;;;;;20.25;14.50;;;;;;;;5098859;27;51200;-57
2022/03/28 03:09:26;;;;;;;;;15.75;13.75;;;;;;;;5101322;27;51395;-55
2022/03/28 03:12:11;;;;;;;;;15.75;14.00;;;;;;;;5089980;27;51429;-57
2022/03/28 03:14:55;;;;;;;;;18.50;13.75;;;;;;;;5083326;27;51102;-56
2022/03/28 03:18:06;;;;;;;;;21.00;14.00;;;;;;;;5084279;27;51112;-58
2022/03/28 03:21:03;;;;;;;;;24.00;12.25;;;;;;;;5095665;27;51152;-58
2022/03/28 03:23:50;;;;;;;;;21.75;12.50;;;;;;;;5084699;27;51580;-58
2022/03/28 03:26:43;;;;;;;;;19.00;14.25;;;;;;;;5080540;27;51135;-58
2022/03/28 03:29:27;;;;;;;;;21.75;17.00;;;;;;;;5096314;27;50989;-58
2022/03/28 03:32:13;;;;;;;;;21.50;15.25;;;;;;;;5081636;27;51108;-57
2022/03/28 03:34:59;;;;;;;;;17.00;16.00;;;;;;;;5081156;27;51053;-58
2022/03/28 03:37:47;;;;;;;;;20.50;14.75;;;;;;;;5088545;27;51320;-58
2022/03/28 03:40:32;;;;;;;;;25.00;14.50;;;;;;;;5098377;27;51154;-58
2022/03/28 03:43:21;;;;;;;;;15.50;14.25;;;;;;;;5089355;27;51063;-57
2022/03/28 03:46:07;;;;;;;;;18.75;13.50;;;;;;;;5080781;27;51077;-57
2022/03/28 03:48:57;;;;;;;;;19.00;15.50;;;;;;;;5084368;27;51170;-57
2022/03/28 03:51:42;;;;;;;;;21.75;13.50;;;;;;;;5084848;27;51067;-57
2022/03/28 03:54:28;;;;;;;;;22.50;14.50;;;;;;;;5097831;27;51172;-58
2022/03/28 03:57:17;;;;;;;;;21.75;15.25;;;;;;;;5093062;27;51586;-58
2022/03/28 04:00:07;;;;;;;;;19.75;14.25;;;;;;;;5080475;27;51053;-58
2022/03/28 04:03:03;;;;;;;;;16.00;13.75;;;;;;;;5084020;27;51175;-58
2022/03/28 04:05:47;;;;;;;;;20.00;13.75;;;;;;;;5080441;27;51776;-59
2022/03/28 04:08:32;;;;;;;;;17.75;15.00;;;;;;;;5080212;27;51095;-58
2022/03/28 04:11:19;;;;;;;;;22.75;14.75;;;;;;;;5072299;27;51211;-58
2022/03/28 04:14:06;;;;;;;;;23.00;15.75;;;;;;;;5070273;27;51501;-57
2022/03/28 04:16:51;;;;;;;;;20.00;15.75;;;;;;;;5086665;27;51269;-58
2022/03/28 04:19:35;;;;;;;;;22.25;13.25;;;;;;;;5089194;27;50992;-56
2022/03/28 04:22:21;;;;;;;;;19.00;14.25;;;;;;;;5100205;27;51861;-56
2022/03/28 04:25:08;;;;;;;;;17.75;14.00;;;;;;;;5100613;27;51089;-55
2022/03/28 04:27:54;;;;;;;;;16.25;12.50;;;;;;;;5095419;27;51567;-55
2022/03/28 04:30:38;;;;;;;;;19.25;16.50;;;;;;;;5079088;27;51514;-56
2022/03/28 04:33:32;;;;;;;;;20.00;14.50;;;;;;;;5083383;27;51124;-56
2022/03/28 04:36:17;;;;;;;;;14.25;13.75;;;;;;;;5081803;27;51128;-55
2022/03/28 04:39:02;;;;;;;;;26.75;13.00;;;;;;;;5079767;27;51062;-57
2022/03/28 04:41:47;;;;;;;;;23.50;14.75;;;;;;;;5080589;27;51040;-58
2022/03/28 04:44:46;;;;;;;;;17.75;12.75;;;;;;;;5093364;27;51055;-57
2022/03/28 04:47:36;;;;;;;;;21.50;13.00;;;;;;;;5098963;27;51062;-57
2022/03/28 04:50:21;;;;;;;;;18.25;13.75;;;;;;;;5088802;27;51103;-57
2022/03/28 04:53:07;;;;;;;;;22.25;18.00;;;;;;;;5089375;27;51375;-55
2022/03/28 04:56:03;;;;;;;;;22.00;17.00;;;;;;;;5094467;27;51005;-58
2022/03/28 04:58:48;;;;;;;;;24.00;17.75;;;;;;;;5080349;27;51175;-54
2022/03/28 05:01:36;;;;;;;;;21.00;13.50;;;;;;;;5078774;27;51154;-56
2022/03/28 05:04:20;;;;;;;;;19.75;14.50;;;;;;;;5078744;27;51048;-54
2022/03/28 05:07:05;;;;;;;;;17.00;13.75;;;;;;;;5080195;27;51207;-57
2022/03/28 05:09:49;;;;;;;;;27.25;20.00;;;;;;;;5094149;27;51190;-53
2022/03/28 05:12:34;;;;;;;;;23.25;15.50;;;;;;;;5098070;27;51160;-56
2022/03/28 05:15:25;;;;;;;;;24.75;19.75;;;;;;;;5099374;27;51126;-55
2022/03/28 05:18:11;;;;;;;;;30.00;21.75;;;;;;;;5095626;27;51891;-55
2022/03/28 05:20:57;;;;;;;;;22.50;15.25;;;;;;;;5079144;27;51032;-57
2022/03/28 05:24:04;;;;;;;;;21.50;12.25;;;;;;;;5079256;27;51835;-55
2022/03/28 05:26:49;;;;;;;;;22.50;16.00;;;;;;;;5099854;27;51204;-54
2022/03/28 05:29:35;;;;;;;;;29.00;18.75;;;;;;;;5098674;27;51520;-56
2022/03/28 05:32:20;;;;;;;;;27.75;17.75;;;;;;;;5098591;27;51129;-56
2022/03/28 05:35:05;;;;;;;;;25.00;18.50;;;;;;;;5083965;27;51221;-54
2022/03/28 05:37:53;;;;;;;;;26.00;19.75;;;;;;;;5099072;27;51432;-56
2022/03/28 05:40:59;;;;;;;;;29.00;19.75;;;;;;;;5097967;27;51228;-58
2022/03/28 05:44:06;;;;;;;;;24.00;16.00;;;;;;;;5099757;27;51099;-56
2022/03/28 05:46:51;;;;;;;;;29.00;21.00;;;;;;;;5077685;27;52097;-55
2022/03/28 05:49:36;;;;;;;;;18.00;14.25;;;;;;;;5093955;27;51115;-57
2022/03/28 05:52:22;;;;;;;;;61.75;43.25;;;;;;;;5066928;27;51154;-56
2022/03/28 05:55:09;;;;;;;;;22.25;15.75;;;;;;;;5083489;27;51482;-56
2022/03/28 05:57:53;;;;;;;;;22.00;13.00;;;;;;;;5101984;27;51525;-57
2022/03/28 06:01:04;;;;;;;;;20.50;16.50;;;;;;;;5101500;27;51438;-57
2022/03/28 06:04:00;;;;;;;;;23.25;16.50;;;;;;;;5080939;27;51657;-56
2022/03/28 06:06:45;;;;;;;;;28.50;23.25;;;;;;;;5087433;27;51165;-54
2022/03/28 06:09:31;;;;;;;;;40.00;30.00;;;;;;;;5102131;27;51585;-56
2022/03/28 06:12:18;;;;;;;;;33.50;19.50;;;;;;;;5102138;27;51419;-56
2022/03/28 06:15:09;;;;;;;;;25.75;19.50;;;;;;;;5100210;27;51546;-55
2022/03/28 06:18:05;;;;;;;;;29.75;22.00;;;;;;;;5098464;27;51192;-57
2022/03/28 06:21:19;;;;;;;;;25.50;21.00;;;;;;;;5102395;27;51173;-56
2022/03/28 06:24:03;;;;;;;;;35.25;25.75;;;;;;;;5101272;27;51124;-58
2022/03/28 06:27:06;;;;;;;;;32.00;25.25;;;;;;;;5082012;27;51043;-56
2022/03/28 06:30:01;;;;;;;;;23.00;16.25;;;;;;;;5100649;27;51485;-54
2022/03/28 06:32:50;;;;;;;;;22.50;19.00;;;;;;;;5101423;27;51199;-55
2022/03/28 06:35:47;;;;;;;;;22.25;17.75;;;;;;;;5067523;27;51431;-56
2022/03/28 06:38:33;;;;;;;;;22.00;15.50;;;;;;;;5100461;27;51164;-57
2022/03/28 06:41:23;;;;;;;;;22.25;16.75;;;;;;;;5089255;27;51071;-55
2022/03/28 06:44:20;;;;;;;;;25.00;18.25;;;;;;;;5080311;27;51144;-54
2022/03/28 06:47:30;;;;;;;;;27.00;22.50;;;;;;;;5077815;27;51190;-56
2022/03/28 06:50:15;;;;;;;;;35.00;24.75;;;;;;;;5080755;27;51189;-57
2022/03/28 06:53:11;;;;;;;;;30.00;21.75;;;;;;;;5081058;27;51165;-55
2022/03/28 06:56:16;;;;;;;;;30.00;21.50;;;;;;;;5100358;27;51094;-57
2022/03/28 06:59:12;;;;;;;;;25.75;19.75;;;;;;;;5100371;27;51150;-56
2022/03/28 07:01:58;;;;;;;;;26.75;22.75;;;;;;;;5095006;27;51304;-55
2022/03/28 07:04:44;;;;;;;;;36.75;27.75;;;;;;;;5100605;27;51093;-54
2022/03/28 07:07:38;;;;;;;;;30.00;27.50;;;;;;;;5080821;27;51157;-55
2022/03/28 07:10:28;;;;;;;;;30.75;26.75;;;;;;;;5080065;27;51209;-55
2022/03/28 07:13:13;;;;;;;;;35.50;28.50;;;;;;;;5080638;27;51262;-56
2022/03/28 07:16:03;;;;;;;;;34.00;27.75;;;;;;;;5095352;27;51548;-57
2022/03/28 07:18:49;;;;;;;;;41.00;32.25;;;;;;;;5081002;27;51574;-56
2022/03/28 07:21:33;;;;;;;;;43.50;31.50;;;;;;;;5098079;27;51332;-53
2022/03/28 07:24:55;;;;;;;;;43.00;33.00;;;;;;;;5099076;27;51125;-56
2022/03/28 07:27:44;;;;;;;;;42.25;30.00;;;;;;;;5095411;27;51597;-55
2022/03/28 07:30:39;;;;;;;;;49.00;33.75;;;;;;;;5098284;27;51136;-58
2022/03/28 07:33:26;;;;;;;;;41.75;31.75;;;;;;;;5088124;27;51477;-54
2022/03/28 07:36:11;;;;;;;;;35.25;30.00;;;;;;;;5066342;27;51400;-58
2022/03/28 07:39:00;;;;;;;;;44.00;31.75;;;;;;;;5074270;27;51188;-57
2022/03/28 07:41:46;;;;;;;;;41.50;28.75;;;;;;;;5090200;27;51125;-58
2022/03/28 07:44:32;;;;;;;;;43.75;30.50;;;;;;;;5079983;27;51052;-56
2022/03/28 07:47:25;;;;;;;;;41.50;30.00;;;;;;;;5077460;27;51110;-56
2022/03/28 07:50:12;;;;;;;;;31.75;27.75;;;;;;;;5080044;27;51230;-57
2022/03/28 07:53:12;;;;;;;;;36.75;31.25;;;;;;;;5098888;27;51217;-57
2022/03/28 07:56:09;;;;;;;;;26.25;22.75;;;;;;;;5095967;27;51157;-57
2022/03/28 07:58:54;;;;;;;;;25.50;21.50;;;;;;;;5099938;27;51906;-57
2022/03/28 08:01:38;;;;;;;;;28.00;24.50;;;;;;;;5100049;27;51140;-56
2022/03/28 08:04:27;;;;;;;;;26.50;24.25;;;;;;;;5099851;27;51499;-58
2022/03/28 08:07:12;;;;;;;;;31.50;23.75;;;;;;;;5079482;27;51071;-56
2022/03/28 08:09:57;;;;;;;;;30.00;21.25;;;;;;;;5087138;27;51129;-57
2022/03/28 08:13:08;;;;;;;;;24.00;18.25;;;;;;;;5097674;27;51443;-58
2022/03/28 08:15:52;;;;;;;;;19.25;16.25;;;;;;;;5087946;27;51091;-55
2022/03/28 08:18:39;;;;;;;;;22.50;15.75;;;;;;;;5086884;27;51218;-58
2022/03/28 08:21:29;;;;;;;;;23.50;17.75;;;;;;;;5083352;27;51159;-57
2022/03/28 08:24:14;;;;;;;;;28.25;18.25;;;;;;;;5079432;27;51067;-58
2022/03/28 08:27:06;;;;;;;;;23.75;18.50;;;;;;;;5095071;27;52627;-58
2022/03/28 08:29:53;;;;;;;;;32.25;21.25;;;;;;;;5078727;27;51567;-56
2022/03/28 08:32:40;;;;;;;;;28.50;24.25;;;;;;;;5099034;27;51157;-57
2022/03/28 08:35:25;;;;;;;;;20.25;17.75;;;;;;;;5086991;27;51158;-57
2022/03/28 08:38:09;;;;;;;;;21.50;17.00;;;;;;;;5099951;27;51441;-57
2022/03/28 08:40:55;;;;;;;;;28.75;22.75;;;;;;;;5099702;27;51093;-57
2022/03/28 08:43:40;;;;;;;;;20.25;18.00;;;;;;;;5098842;27;51317;-57
2022/03/28 08:46:41;;;;;;;;;28.75;21.50;;;;;;;;5079269;27;51095;-58
2022/03/28 08:49:32;;;;;;;;;25.50;17.00;;;;;;;;5096438;27;51527;-56
2022/03/28 08:52:16;;;;;;;;;20.50;17.75;;;;;;;;5097179;27;51124;-57
2022/03/28 08:55:01;;;;;;;;;25.50;18.75;;;;;;;;5089226;27;51102;-58
2022/03/28 08:57:46;;;;;;;;;26.75;19.25;;;;;;;;5093478;27;51339;-58
2022/03/28 09:00:35;;;;;;;;;23.00;18.00;;;;;;;;5098637;27;51264;-55
2022/03/28 09:03:20;;;;;;;;;30.50;19.00;;;;;;;;5097068;27;51460;-56
2022/03/28 09:06:22;;;;;;;;;26.00;17.50;;;;;;;;5068799;27;51142;-57
2022/03/28 09:09:26;;;;;;;;;22.00;18.25;;;;;;;;5099171;27;51111;-58
2022/03/28 09:12:14;;;;;;;;;22.25;19.00;;;;;;;;5065035;27;51267;-58
2022/03/28 09:15:01;;;;;;;;;20.50;16.50;;;;;;;;5078860;27;51450;-56
2022/03/28 09:17:56;;;;;;;;;17.50;14.25;;;;;;;;5097066;27;51246;-56
2022/03/28 09:20:46;;;;;;;;;29.75;20.00;;;;;;;;5099240;27;51169;-58
2022/03/28 09:23:40;;;;;;;;;23.50;18.75;;;;;;;;5092935;27;51076;-58
2022/03/28 09:26:26;;;;;;;;;21.00;17.50;;;;;;;;5083115;27;51028;-53
2022/03/28 09:29:11;;;;;;;;;20.50;14.75;;;;;;;;5076914;27;51886;-51
2022/03/28 09:32:05;;;;;;;;;22.50;14.50;;;;;;;;5095754;27;51112;-53
2022/03/28 09:35:03;;;;;;;;;17.50;15.50;;;;;;;;5084750;27;51206;-53
2022/03/28 09:37:51;;;;;;;;;17.00;15.25;;;;;;;;5083370;27;51048;-53
2022/03/28 09:40:59;;;;;;;;;35.50;25.50;;;;;;;;5099686;27;51541;-53
2022/03/28 09:44:04;;;;;;;;;24.00;13.50;;;;;;;;5094990;27;51195;-52
2022/03/28 09:47:03;;;;;;;;;21.00;15.75;;;;;;;;5082685;27;51429;-53
2022/03/28 09:50:01;;;;;;;;;27.00;17.00;;;;;;;;5072445;27;51198;-52
2022/03/28 09:52:47;;;;;;;;;24.00;19.50;;;;;;;;5092894;27;51256;-53
2022/03/28 09:55:58;;;;;;;;;15.25;11.50;;;;;;;;5084637;27;51253;-53
2022/03/28 09:58:56;;;;;;;;;22.00;18.00;;;;;;;;5084897;27;51126;-51
2022/03/28 10:01:42;;;;;;;;;25.75;17.25;;;;;;;;5082142;27;51215;-53
2022/03/28 10:04:31;;;;;;;;;19.00;15.25;;;;;;;;5082076;27;51560;-54
2022/03/28 10:07:26;;;;;;;;;22.00;19.25;;;;;;;;5100245;27;51118;-51
2022/03/28 10:10:12;;;;;;;;;15.00;12.25;;;;;;;;5102456;27;51326;-54
2022/03/28 10:13:07;;;;;;;;;18.00;14.25;;;;;;;;5097074;27;51618;-52
2022/03/28 10:15:56;;;;;;;;;19.00;14.50;;;;;;;;5089953;27;51123;-51
2022/03/28 10:18:52;;;;;;;;;26.75;16.75;;;;;;;;5102879;27;51437;-54
2022/03/28 10:21:37;;;;;;;;;23.00;13.50;;;;;;;;5102331;27;51585;-53
2022/03/28 10:24:24;;;;;;;;;20.00;13.25;;;;;;;;5096044;27;51557;-53
2022/03/28 10:27:12;;;;;;;;;25.50;18.50;;;;;;;;5074123;27;52094;-53
2022/03/28 10:30:09;;;;;;;;;22.50;14.00;;;;;;;;5070906;27;51076;-52
2022/03/28 10:33:14;;;;;;;;;20.00;13.75;;;;;;;;5087222;27;51151;-52
2022/03/28 10:36:03;;;;;;;;;16.00;11.75;;;;;;;;5093564;27;51106;-51
2022/03/28 10:38:52;;;;;;;;;19.25;15.75;;;;;;;;5081924;27;51359;-53
2022/03/28 10:41:40;;;;;;;;;21.00;16.25;;;;;;;;5096659;27;51109;-54
2022/03/28 10:44:29;;;;;;;;;15.75;15.00;;;;;;;;5081713;27;51118;-53
2022/03/28 10:47:51;;;;;;;;;18.50;14.00;;;;;;;;5101541;27;51482;-53
2022/03/28 10:50:44;;;;;;;;;19.25;15.25;;;;;;;;5092314;27;51487;-54
2022/03/28 10:53:33;;;;;;;;;17.75;14.50;;;;;;;;5081582;27;51117;-53
2022/03/28 10:56:24;;;;;;;;;15.75;13.75;;;;;;;;5084671;27;51220;-53
2022/03/28 10:59:09;;;;;;;;;20.00;15.25;;;;;;;;5091250;27;51598;-52
2022/03/28 11:01:53;;;;;;;;;20.25;13.75;;;;;;;;5090244;27;51155;-50
2022/03/28 11:04:48;;;;;;;;;21.00;15.25;;;;;;;;5098802;27;51452;-51
2022/03/28 11:07:38;;;;;;;;;22.50;14.75;;;;;;;;5085440;27;51073;-53
2022/03/28 11:10:23;;;;;;;;;18.75;14.25;;;;;;;;5074355;27;51055;-50
2022/03/28 11:13:18;;;;;;;;;21.75;15.50;;;;;;;;5069262;27;51126;-54
2022/03/28 11:16:04;;;;;;;;;15.50;13.25;;;;;;;;5084006;27;51537;-50
2022/03/28 11:19:08;;;;;;;;;16.00;11.50;;;;;;;;5091003;27;51396;-53
2022/03/28 11:21:59;;;;;;;;;20.75;15.00;;;;;;;;5081952;27;51116;-52
2022/03/28 11:24:54;;;;;;;;;18.75;15.50;;;;;;;;5092391;27;51275;-51
2022/03/28 11:27:39;;;;;;;;;19.75;16.25;;;;;;;;5080758;27;51118;-50
2022/03/28 11:30:26;;;;;;;;;18.25;16.00;;;;;;;;5100309;27;51447;-52
2022/03/28 11:33:19;;;;;;;;;18.00;15.75;;;;;;;;5096915;27;51233;-50
2022/03/28 11:36:22;;;;;;;;;23.50;17.00;;;;;;;;5100306;27;51129;-54
2022/03/28 11:39:14;;;;;;;;;22.00;18.50;;;;;;;;5100637;27;51459;-52
2022/03/28 11:42:00;;;;;;;;;19.75;15.75;;;;;;;;5068825;27;51485;-54
2022/03/28 11:44:52;;;;;;;;;27.25;15.75;;;;;;;;5080920;27;51145;-53
2022/03/28 11:47:39;;;;;;;;;25.25;16.50;;;;;;;;5098802;27;51156;-51
2022/03/28 11:50:25;;;;;;;;;26.25;16.00;;;;;;;;5095274;27;51567;-53
2022/03/28 11:53:18;;;;;;;;;15.00;5.75;;;;;;;;5080496;27;51104;-51
2022/03/28 11:56:06;;;;;;;;;13.00;7.00;;;;;;;;5080158;27;51542;-52
2022/03/28 11:58:54;;;;;;;;;16.50;15.25;;;;;;;;5095954;27;51188;-53
2022/03/28 12:02:03;;;;;;;;;26.50;15.00;;;;;;;;5080733;27;51102;-53
2022/03/28 12:05:09;;;;;;;;;22.75;14.75;;;;;;;;5100221;27;51086;-49
2022/03/28 12:07:57;;;;;;;;;23.50;16.25;;;;;;;;5081511;27;51635;-53
2022/03/28 12:11:02;;;;;;;;;16.00;9.25;;;;;;;;5079322;27;51101;-54
2022/03/28 12:13:47;;;;;;;;;21.00;13.00;;;;;;;;5088213;27;51086;-53
2022/03/28 12:16:32;;;;;;;;;17.00;11.75;;;;;;;;5100532;27;51075;-54
2022/03/28 12:19:21;;;;;;;;;13.50;9.25;;;;;;;;5096335;27;51077;-54
2022/03/28 12:22:13;;;;;;;;;15.50;13.00;;;;;;;;5079954;27;51518;-49
2022/03/28 12:25:08;;;;;;;;;18.00;9.50;;;;;;;;5079556;27;51171;-54
2022/03/28 12:28:05;;;;;;;;;12.00;8.75;;;;;;;;5079192;27;51119;-52
2022/03/28 12:30:52;;;;;;;;;14.00;10.75;;;;;;;;5069320;27;51203;-51
2022/03/28 12:33:39;;;;;;;;;12.50;12.00;;;;;;;;5084743;27;51128;-52
2022/03/28 12:36:26;;;;;;;;;12.25;9.25;;;;;;;;5099954;27;51066;-54
2022/03/28 12:39:12;;;;;;;;;17.00;10.00;;;;;;;;5100186;27;50969;-53
2022/03/28 12:41:57;;;;;;;;;15.75;10.00;;;;;;;;5099067;27;51118;-51
2022/03/28 12:44:43;;;;;;;;;17.25;11.25;;;;;;;;5086903;27;51259;-50
2022/03/28 12:47:31;;;;;;;;;15.75;9.50;;;;;;;;5094567;27;51358;-53
2022/03/28 12:50:15;;;;;;;;;15.00;11.75;;;;;;;;5099809;27;51236;-50
2022/03/28 12:53:18;;;;;;;;;10.75;9.50;;;;;;;;5098846;27;51242;-52
2022/03/28 12:56:15;;;;;;;;;17.75;10.25;;;;;;;;5079256;27;51039;-53
2022/03/28 12:59:03;;;;;;;;;11.25;9.75;;;;;;;;5098825;27;51141;-54
2022/03/28 13:01:49;;;;;;;;;10.50;9.50;;;;;;;;5099381;27;51024;-51
2022/03/28 13:04:49;;;;;;;;;16.00;9.25;;;;;;;;5085746;27;51026;-53
2022/03/28 13:07:43;;;;;;;;;11.50;10.25;;;;;;;;5078840;27;51115;-50
2022/03/28 13:10:35;;;;;;;;;17.25;10.25;;;;;;;;5079010;27;51244;-51
2022/03/28 13:13:35;;;;;;;;;16.00;12.75;;;;;;;;5079455;27;51387;-51
2022/03/28 13:16:21;;;;;;;;;15.25;10.75;;;;;;;;5078776;27;51124;-52
2022/03/28 13:19:06;;;;;;;;;15.00;10.00;;;;;;;;5099878;27;51181;-51
2022/03/28 13:22:06;;;;;;;;;17.75;9.50;;;;;;;;5086189;27;51203;-53
2022/03/28 13:25:16;;;;;;;;;15.50;12.50;;;;;;;;5099131;27;51459;-51
2022/03/28 13:28:02;;;;;;;;;20.00;12.00;;;;;;;;5098608;27;51176;-53
2022/03/28 13:30:50;;;;;;;;;18.00;11.50;;;;;;;;5084500;27;51133;-49
2022/03/28 13:33:38;;;;;;;;;11.75;10.25;;;;;;;;5079090;27;51539;-51
2022/03/28 13:36:43;;;;;;;;;12.75;8.25;;;;;;;;5099026;27;51060;-50
2022/03/28 13:39:31;;;;;;;;;32.50;26.00;;;;;;;;5082059;27;51517;-54
2022/03/28 13:42:19;;;;;;;;;23.25;19.75;;;;;;;;5091475;27;51177;-52
2022/03/28 13:45:04;;;;;;;;;20.00;13.25;;;;;;;;5076104;27;51518;-51
2022/03/28 13:47:50;;;;;;;;;13.75;12.75;;;;;;;;5071270;27;51133;-52
2022/03/28 13:50:47;;;;;;;;;13.50;10.50;;;;;;;;5098087;27;51478;-49
2022/03/28 13:53:35;;;;;;;;;17.75;10.50;;;;;;;;5093229;27;51121;-52
2022/03/28 13:56:24;;;;;;;;;14.50;10.50;;;;;;;;5080855;27;51079;-53
2022/03/28 13:59:10;;;;;;;;;19.00;12.00;;;;;;;;5078051;27;51490;-51
2022/03/28 14:01:59;;;;;;;;;16.25;12.25;;;;;;;;5092907;27;51186;-50
2022/03/28 14:04:55;;;;;;;;;16.25;12.25;;;;;;;;5088669;27;51707;-50
2022/03/28 14:07:42;;;;;;;;;18.75;16.50;;;;;;;;5079315;27;51142;-53
2022/03/28 14:10:27;;;;;;;;;24.00;18.25;;;;;;;;5082037;27;51216;-50
2022/03/28 14:13:12;;;;;;;;;17.75;15.00;;;;;;;;5102317;27;51472;-52
2022/03/28 14:16:16;;;;;;;;;22.00;16.50;;;;;;;;5102230;27;51501;-54
2022/03/28 14:19:00;;;;;;;;;19.50;15.75;;;;;;;;5096260;27;51145;-53
2022/03/28 14:21:46;;;;;;;;;20.00;16.75;;;;;;;;5087938;27;51138;-53
2022/03/28 14:24:31;;;;;;;;;17.25;14.50;;;;;;;;5084904;27;51256;-54
2022/03/28 14:27:18;;;;;;;;;19.50;17.00;;;;;;;;5082058;27;51151;-51
2022/03/28 14:30:08;;;;;;;;;35.50;26.75;;;;;;;;5091806;27;51165;-53
2022/03/28 14:32:53;;;;;;;;;20.25;14.00;;;;;;;;5093189;27;51168;-52
2022/03/28 14:36:01;;;;;;;;;22.25;20.25;;;;;;;;5094540;27;51452;-52
2022/03/28 14:38:47;;;;;;;;;29.75;19.75;;;;;;;;5093782;27;51250;-50
2022/03/28 14:41:31;;;;;;;;;16.50;14.00;;;;;;;;5095206;27;51935;-51
2022/03/28 14:44:17;;;;;;;;;21.50;15.75;;;;;;;;5089560;27;51544;-52
2022/03/28 14:47:21;;;;;;;;;18.50;13.25;;;;;;;;5097316;27;51019;-49
2022/03/28 14:50:08;;;;;;;;;21.00;11.75;;;;;;;;5086419;27;50993;-51
2022/03/28 14:52:55;;;;;;;;;18.00;13.25;;;;;;;;5074765;27;51491;-50
2022/03/28 14:55:41;;;;;;;;;20.25;15.25;;;;;;;;5090466;27;51640;-50
2022/03/28 14:58:25;;;;;;;;;18.50;11.00;;;;;;;;5093615;27;51137;-52
2022/03/28 15:01:11;;;;;;;;;13.50;12.75;;;;;;;;5094120;27;51165;-52
2022/03/28 15:04:00;;;;;;;;;21.00;17.50;;;;;;;;5094964;27;51222;-52
2022/03/28 15:06:48;;;;;;;;;24.25;16.00;;;;;;;;5098096;27;51088;-52
2022/03/28 15:09:45;;;;;;;;;21.50;15.75;;;;;;;;5082998;27;51215;-51
2022/03/28 15:12:29;;;;;;;;;18.50;14.25;;;;;;;;5089309;27;51528;-52
2022/03/28 15:15:14;;;;;;;;;22.25;15.50;;;;;;;;5087087;27;52295;-53
2022/03/28 15:18:00;;;;;;;;;21.25;16.00;;;;;;;;5088814;27;51196;-53
2022/03/28 15:20:44;;;;;;;;;21.25;15.75;;;;;;;;5093877;27;51528;-53
2022/03/28 15:23:30;;;;;;;;;35.25;25.00;;;;;;;;5086870;27;51457;-53
2022/03/28 15:26:16;;;;;;;;;24.50;18.00;;;;;;;;5093913;27;51528;-51
2022/03/28 15:29:01;;;;;;;;;25.00;19.00;;;;;;;;5093966;27;51583;-52
2022/03/28 15:31:56;;;;;;;;;23.50;18.75;;;;;;;;5075297;27;51313;-49
2022/03/28 15:34:41;;;;;;;;;25.75;17.75;;;;;;;;5079942;27;51100;-53
2022/03/28 15:37:29;;;;;;;;;20.75;15.75;;;;;;;;5086856;27;51423;-51
2022/03/28 15:40:13;;;;;;;;;22.00;15.50;;;;;;;;5086976;27;51468;-50
2022/03/28 15:42:58;;;;;;;;;22.75;17.75;;;;;;;;5080944;27;51169;-53
2022/03/28 15:45:56;;;;;;;;;22.50;16.00;;;;;;;;5078285;27;52203;-52
2022/03/28 15:48:41;;;;;;;;;22.75;17.25;;;;;;;;5080108;27;51146;-53
2022/03/28 15:51:25;;;;;;;;;22.50;17.50;;;;;;;;5095649;27;51103;-51
2022/03/28 15:54:10;;;;;;;;;23.75;16.50;;;;;;;;5100364;27;51229;-53
2022/03/28 15:56:54;;;;;;;;;21.50;16.50;;;;;;;;5100652;27;51209;-51
2022/03/28 15:59:40;;;;;;;;;22.75;16.50;;;;;;;;5100523;27;51568;-53
2022/03/28 16:02:25;;;;;;;;;17.00;14.25;;;;;;;;5091688;27;51137;-50
2022/03/28 16:05:17;;;;;;;;;21.50;16.50;;;;;;;;5080642;27;51056;-52
2022/03/28 16:08:01;;;;;;;;;20.25;15.25;;;;;;;;5084763;27;51182;-50
2022/03/28 16:10:45;;;;;;;;;23.00;16.75;;;;;;;;5080370;27;51075;-53
2022/03/28 16:13:30;;;;;;;;;24.50;16.50;;;;;;;;5095942;27;51069;-51
2022/03/28 16:16:15;;;;;;;;;25.00;17.75;;;;;;;;5100168;27;51121;-53
2022/03/28 16:19:03;;;;;;;;;16.25;14.25;;;;;;;;5097773;27;51340;-53
2022/03/28 16:21:48;;;;;;;;;18.25;12.25;;;;;;;;5079883;27;51459;-52
2022/03/28 16:24:32;;;;;;;;;14.50;12.75;;;;;;;;5099315;27;51126;-52
2022/03/28 16:27:17;;;;;;;;;20.00;15.75;;;;;;;;5099924;27;51120;-52
2022/03/28 16:30:02;;;;;;;;;19.50;14.50;;;;;;;;5099372;27;51425;-52
2022/03/28 16:33:13;;;;;;;;;18.00;10.25;;;;;;;;5080481;27;51221;-54